Amelia City, Florida
Current Conditions -  °F | °C
As of 11:55 AM on Thursday 23 Oct 2014 (Local Time) from KFHB Reporting Station
Scattered Clouds Scattered Clouds  
Wind Chill: 75°   Ceiling: Unl
Heat Index: 75°   Visibility: 10mi
Dew Point: 55°   Wind: 13mph
Humidity: 50%   Direction: 50°NE
Pressure: 30.07"   Gusts: 20mph
Location:  30.6056°N, 81.5268°W
Report Text: KFHB 231555Z AUTO 05011G17KT 10SM SCT029 24/13 A3007 RMK AO1
Loading
Personal Weather Stations






























Interactive Weather Map
Tropical Storm Tracking
New forecast layout! Learn more

10-Day Weather Forecast

Advertisements
Track Severe Weather on mobile